createdAt,value
2024-03-13T00:01:37.926Z,8.73
2024-03-13T00:04:46.507Z,8.67
2024-03-13T00:07:49.397Z,8.72
2024-03-13T00:10:52.351Z,8.68
2024-03-13T00:13:56.425Z,8.65
2024-03-13T00:16:59.452Z,8.67
2024-03-13T00:20:02.486Z,8.71
2024-03-13T00:23:06.620Z,8.69
2024-03-13T00:26:09.308Z,8.72
2024-03-13T00:29:12.572Z,8.67
2024-03-13T00:32:18.003Z,8.62
2024-03-13T00:35:25.248Z,8.56
2024-03-13T00:38:27.757Z,8.57
2024-03-13T00:41:30.947Z,8.56
2024-03-13T00:44:33.556Z,8.58
2024-03-13T00:47:36.776Z,8.66
2024-03-13T00:50:41.299Z,8.57
2024-03-13T00:53:44.553Z,8.60
2024-03-13T00:56:49.395Z,8.52
2024-03-13T00:59:52.601Z,8.53
2024-03-13T01:02:55.122Z,8.57
2024-03-13T01:05:58.625Z,8.55
2024-03-13T01:09:01.617Z,8.49
2024-03-13T01:12:07.227Z,8.52
2024-03-13T01:15:10.903Z,8.54
2024-03-13T01:18:14.254Z,8.62
2024-03-13T01:21:17.416Z,8.47
2024-03-13T01:24:21.941Z,8.42
2024-03-13T01:27:24.801Z,8.45
2024-03-13T01:30:30.591Z,8.41
2024-03-13T01:33:34.058Z,8.40
2024-03-13T01:36:56.753Z,8.35
2024-03-13T01:40:04.039Z,8.36
2024-03-13T01:43:25.903Z,8.37
2024-03-13T01:46:46.855Z,8.35
2024-03-13T01:50:08.291Z,8.28
2024-03-13T01:53:29.758Z,8.19
2024-03-13T01:56:33.002Z,8.24
2024-03-13T01:59:50.081Z,8.17
2024-03-13T02:02:53.349Z,8.10
2024-03-13T02:05:59.068Z,8.06
2024-03-13T02:09:02.008Z,8.13
2024-03-13T02:12:09.621Z,8.22
2024-03-13T02:15:12.224Z,8.20
2024-03-13T02:18:22.397Z,8.22
2024-03-13T02:21:25.478Z,8.33
2024-03-13T02:24:28.791Z,8.25
2024-03-13T02:27:33.896Z,8.25
2024-03-13T02:30:36.990Z,8.33
2024-03-13T02:33:40.119Z,8.33
2024-03-13T02:36:43.843Z,8.38
2024-03-13T02:39:46.756Z,8.34
2024-03-13T02:42:49.951Z,8.38
2024-03-13T02:45:53.383Z,8.46
2024-03-13T02:48:56.670Z,8.50
2024-03-13T02:51:59.683Z,8.46
2024-03-13T02:55:02.876Z,8.50
2024-03-13T02:58:06.050Z,8.48
2024-03-13T03:01:09.382Z,8.50
2024-03-13T03:04:12.963Z,8.42
2024-03-13T03:07:17.370Z,8.43
2024-03-13T03:10:20.772Z,8.54
2024-03-13T03:13:24.426Z,8.47
2024-03-13T03:16:29.600Z,8.48
2024-03-13T03:19:35.488Z,8.50
2024-03-13T03:22:38.310Z,8.49
2024-03-13T03:25:41.545Z,8.49
2024-03-13T03:28:44.319Z,8.57
2024-03-13T03:31:47.461Z,8.51
2024-03-13T03:34:50.323Z,8.38
2024-03-13T03:37:53.598Z,8.35
2024-03-13T03:40:56.448Z,8.36
2024-03-13T03:44:00.902Z,8.38
2024-03-13T03:47:04.121Z,8.46
2024-03-13T03:50:08.298Z,8.35
2024-03-13T03:53:11.205Z,8.38
2024-03-13T03:56:14.404Z,8.30
2024-03-13T03:59:17.021Z,8.30
2024-03-13T04:02:20.825Z,8.40
2024-03-13T04:05:24.344Z,8.37
2024-03-13T04:08:27.125Z,8.30
2024-03-13T04:11:30.528Z,8.32
2024-03-13T04:14:33.192Z,8.33
2024-03-13T04:17:36.698Z,8.35
2024-03-13T04:20:39.611Z,8.32
2024-03-13T04:23:47.118Z,8.31
2024-03-13T04:26:49.969Z,8.27
2024-03-13T04:29:53.045Z,8.26
2024-03-13T04:32:55.686Z,8.15
2024-03-13T04:35:58.701Z,8.15
2024-03-13T04:39:01.989Z,8.11
2024-03-13T04:42:05.653Z,8.20
2024-03-13T04:45:08.714Z,8.20
2024-03-13T04:48:12.159Z,8.18
2024-03-13T04:51:15.406Z,8.17
2024-03-13T04:54:18.557Z,8.10
2024-03-13T04:57:21.230Z,8.04
2024-03-13T05:00:25.289Z,8.05
2024-03-13T05:03:28.073Z,8.06
2024-03-13T05:06:31.098Z,8.07
2024-03-13T05:09:33.657Z,8.17
2024-03-13T05:12:39.591Z,8.22
2024-03-13T05:15:42.299Z,8.25
2024-03-13T05:18:45.459Z,8.33
2024-03-13T05:21:48.285Z,8.34
2024-03-13T05:24:51.145Z,8.37
2024-03-13T05:27:53.940Z,8.44
2024-03-13T05:30:57.061Z,8.45
2024-03-13T05:33:59.628Z,8.49
2024-03-13T05:37:02.913Z,8.66
2024-03-13T05:40:18.489Z,8.61
2024-03-13T05:43:21.701Z,8.67
2024-03-13T05:46:24.343Z,8.72
2024-03-13T05:49:27.339Z,8.69
2024-03-13T05:52:30.321Z,8.66
2024-03-13T05:55:34.098Z,8.70
2024-03-13T05:58:37.085Z,8.73
2024-03-13T06:01:40.028Z,8.80
2024-03-13T06:04:43.427Z,8.80
2024-03-13T06:07:47.827Z,8.74
2024-03-13T06:10:51.126Z,8.72
2024-03-13T06:13:55.075Z,8.73
2024-03-13T06:16:58.176Z,8.74
2024-03-13T06:20:00.940Z,8.79
2024-03-13T06:23:04.245Z,8.89
2024-03-13T06:26:08.943Z,9.05
2024-03-13T06:29:30.749Z,9.19
2024-03-13T06:32:33.566Z,9.32
2024-03-13T06:35:36.793Z,9.48
2024-03-13T06:38:39.586Z,9.68
2024-03-13T06:41:42.811Z,9.76
2024-03-13T06:44:45.875Z,9.79
2024-03-13T06:47:49.010Z,9.89
2024-03-13T06:50:51.578Z,9.78
2024-03-13T06:53:54.667Z,10.02
2024-03-13T06:56:58.501Z,10.14
2024-03-13T07:00:01.792Z,9.95
2024-03-13T07:03:04.984Z,9.89
2024-03-13T07:06:10.912Z,9.87
2024-03-13T07:09:17.906Z,9.80
2024-03-13T07:12:21.033Z,9.80
2024-03-13T07:15:23.847Z,9.91
2024-03-13T07:18:32.124Z,10.09
2024-03-13T07:21:36.142Z,10.39
2024-03-13T07:24:39.258Z,10.56
2024-03-13T07:27:42.164Z,10.64
2024-03-13T07:30:45.371Z,10.71
2024-03-13T07:33:48.466Z,10.80
2024-03-13T07:36:53.071Z,10.99
2024-03-13T07:39:56.758Z,10.96
2024-03-13T07:42:59.795Z,10.84
2024-03-13T07:46:02.816Z,10.67
2024-03-13T07:49:06.076Z,10.54
2024-03-13T07:52:09.222Z,10.57
2024-03-13T07:55:12.277Z,10.94
2024-03-13T07:58:15.218Z,11.08
2024-03-13T08:01:18.970Z,11.36
2024-03-13T08:04:24.439Z,11.48
2024-03-13T09:07:50.091Z,13.34
2024-03-13T09:10:53.130Z,13.51
2024-03-13T09:14:02.527Z,13.25
2024-03-13T09:17:10.071Z,13.46
2024-03-13T09:20:15.627Z,13.54
2024-03-13T09:23:18.999Z,14.08
2024-03-13T09:26:21.771Z,14.17
2024-03-13T09:29:24.956Z,13.85
2024-03-13T09:32:29.492Z,14.08
2024-03-13T09:35:32.580Z,14.42
2024-03-13T09:38:35.365Z,14.73
2024-03-13T09:41:39.093Z,14.80
2024-03-13T09:44:44.763Z,14.69
2024-03-13T09:47:51.123Z,14.63
2024-03-13T09:50:57.018Z,14.35
2024-03-13T09:54:02.558Z,14.38
2024-03-13T09:57:05.300Z,14.68
2024-03-13T10:00:21.114Z,14.43
2024-03-13T10:03:26.828Z,14.47
2024-03-13T10:06:34.041Z,14.43
2024-03-13T10:09:38.239Z,14.43
2024-03-13T10:12:42.748Z,14.86
2024-03-13T10:15:48.351Z,14.59
2024-03-13T10:18:54.167Z,15.02
2024-03-13T10:21:57.277Z,15.19
2024-03-13T10:25:01.327Z,15.26
2024-03-13T10:28:05.232Z,15.65
2024-03-13T10:31:08.546Z,15.88
2024-03-13T10:34:11.693Z,16.14
2024-03-13T10:37:15.292Z,16.23
2024-03-13T10:40:18.729Z,15.61
2024-03-13T10:43:21.310Z,15.66
2024-03-13T10:46:24.211Z,15.97
2024-03-13T10:49:29.302Z,15.99
2024-03-13T10:52:32.179Z,15.61
2024-03-13T10:55:36.724Z,15.20
2024-03-13T10:58:39.933Z,15.09
2024-03-13T11:01:46.835Z,15.19
2024-03-13T11:04:50.599Z,15.15
2024-03-13T11:07:56.029Z,15.28
2024-03-13T11:11:10.315Z,15.54
2024-03-13T11:14:21.672Z,15.75
2024-03-13T11:17:32.592Z,15.78
2024-03-13T11:20:49.029Z,16.09
2024-03-13T11:24:03.223Z,16.28
2024-03-13T11:27:17.133Z,16.73
2024-03-13T11:30:22.161Z,16.82
2024-03-13T11:33:26.256Z,16.88
2024-03-13T11:36:30.162Z,17.25
2024-03-13T11:39:34.317Z,16.85
2024-03-13T11:42:37.774Z,16.62
2024-03-13T11:45:44.982Z,16.91
2024-03-13T11:48:48.017Z,17.05
2024-03-13T11:52:02.855Z,17.24
2024-03-13T11:55:23.549Z,16.97
2024-03-13T11:58:28.590Z,16.99
2024-03-13T12:01:31.990Z,17.26
2024-03-13T12:04:38.081Z,17.50
2024-03-13T12:07:44.345Z,17.37
2024-03-13T12:10:52.219Z,17.38
2024-03-13T12:13:55.578Z,17.01
2024-03-13T12:16:59.052Z,16.73
2024-03-13T12:20:01.941Z,16.50
2024-03-13T12:23:08.125Z,16.19
2024-03-13T12:26:11.295Z,16.25
2024-03-13T12:29:15.307Z,16.33
2024-03-13T12:32:17.984Z,16.60
2024-03-13T12:35:21.256Z,16.81
2024-03-13T12:38:45.624Z,16.97
2024-03-13T12:41:49.662Z,17.33
2024-03-13T12:44:56.958Z,17.30
2024-03-13T12:48:00.599Z,17.23
2024-03-13T12:51:03.895Z,17.33
2024-03-13T12:54:10.190Z,17.67
2024-03-13T12:57:13.239Z,17.79
2024-03-13T13:00:20.525Z,17.60
2024-03-13T13:03:24.070Z,17.57
2024-03-13T13:06:28.021Z,16.47
2024-03-13T13:09:30.591Z,16.24
2024-03-13T13:12:34.199Z,16.18
2024-03-13T13:15:38.981Z,15.91
2024-03-13T13:18:46.276Z,16.25
2024-03-13T13:21:48.982Z,16.64
2024-03-13T13:24:51.965Z,16.81
2024-03-13T13:27:55.709Z,16.22
2024-03-13T13:30:58.747Z,15.95
2024-03-13T13:34:01.716Z,16.14
2024-03-13T13:37:04.690Z,16.12
2024-03-13T13:40:20.786Z,16.04
2024-03-13T13:43:25.840Z,16.11
2024-03-13T13:46:36.088Z,16.22
2024-03-13T13:49:44.044Z,16.32
2024-03-13T13:52:47.568Z,16.66
2024-03-13T13:55:50.913Z,16.74
2024-03-13T13:58:53.602Z,16.59
2024-03-13T14:01:56.892Z,16.65
2024-03-13T14:04:59.845Z,16.30
2024-03-13T14:08:05.809Z,16.52
2024-03-13T14:11:08.778Z,16.30
2024-03-13T14:14:11.633Z,16.25
2024-03-13T14:17:14.875Z,16.10
2024-03-13T14:20:20.610Z,16.07
2024-03-13T14:23:24.351Z,16.09
2024-03-13T14:26:27.741Z,16.35
2024-03-13T14:29:31.448Z,16.22
2024-03-13T14:32:34.692Z,15.96
2024-03-13T14:35:37.909Z,15.79
2024-03-13T14:38:42.012Z,15.91
2024-03-13T14:41:46.588Z,15.69
2024-03-13T14:44:50.875Z,15.61
2024-03-13T14:47:53.969Z,15.71
2024-03-13T14:50:57.178Z,15.58
2024-03-13T14:54:00.482Z,15.69
2024-03-13T14:57:03.989Z,15.58
2024-03-13T15:00:12.606Z,15.44
2024-03-13T15:03:15.540Z,15.13
2024-03-13T15:06:18.488Z,15.17
2024-03-13T15:09:21.230Z,14.93
2024-03-13T15:12:24.517Z,15.01
2024-03-13T15:15:27.778Z,14.94
2024-03-13T15:18:30.820Z,14.69
2024-03-13T15:21:34.607Z,14.81
2024-03-13T15:24:39.878Z,14.82
2024-03-13T15:27:42.982Z,14.63
2024-03-13T15:30:45.969Z,14.51
2024-03-13T15:33:48.802Z,14.39
2024-03-13T15:36:51.674Z,14.22
2024-03-13T15:39:54.593Z,14.37
2024-03-13T15:42:57.848Z,14.16
2024-03-13T15:46:00.655Z,14.07
2024-03-13T15:49:03.956Z,14.13
2024-03-13T15:52:07.382Z,14.28
2024-03-13T15:55:10.348Z,14.33
2024-03-13T15:58:13.175Z,14.21
2024-03-13T16:01:16.792Z,14.06
2024-03-13T16:04:19.914Z,14.01
2024-03-13T16:07:22.508Z,13.92
2024-03-13T16:10:25.659Z,13.83
2024-03-13T16:13:28.333Z,13.80
2024-03-13T16:16:31.696Z,13.77
2024-03-13T16:19:34.604Z,13.56
2024-03-13T16:22:38.278Z,13.56
2024-03-13T16:25:41.532Z,13.45
2024-03-13T16:28:44.746Z,13.39
2024-03-13T16:31:47.900Z,13.37
2024-03-13T16:34:53.437Z,13.11
2024-03-13T16:37:56.347Z,12.90
2024-03-13T16:40:59.715Z,12.85
2024-03-13T16:44:02.622Z,12.63
2024-03-13T16:47:06.478Z,12.51
2024-03-13T16:50:09.725Z,12.42
2024-03-13T16:53:13.511Z,12.31
2024-03-13T16:56:16.189Z,12.18
2024-03-13T16:59:19.305Z,12.09
2024-03-13T17:02:22.207Z,12.01
2024-03-13T17:05:25.533Z,12.02
2024-03-13T17:08:28.468Z,12.01
2024-03-13T17:11:31.414Z,12.04
2024-03-13T17:14:34.168Z,12.04
2024-03-13T17:17:37.297Z,12.01
2024-03-13T17:20:42.516Z,11.91
2024-03-13T17:23:45.825Z,11.82
2024-03-13T17:26:48.891Z,11.88
2024-03-13T17:29:52.181Z,11.88
2024-03-13T17:32:55.194Z,11.79
2024-03-13T17:35:58.576Z,11.81
2024-03-13T17:39:02.288Z,11.71
2024-03-13T17:42:07.893Z,11.71
2024-03-13T17:45:12.575Z,11.69
2024-03-13T17:48:16.325Z,11.76
2024-03-13T17:51:19.553Z,11.71
2024-03-13T17:54:25.949Z,11.58
2024-03-13T17:57:29.913Z,11.48
2024-03-13T18:00:33.153Z,11.39
2024-03-13T18:03:36.388Z,11.37
2024-03-13T18:06:40.887Z,11.31
2024-03-13T18:09:44.064Z,11.22
2024-03-13T18:12:47.519Z,11.13
2024-03-13T18:15:50.760Z,11.00
2024-03-13T18:18:53.714Z,10.87
2024-03-13T18:21:56.961Z,10.90
2024-03-13T18:24:59.753Z,10.89
2024-03-13T18:28:03.365Z,10.93
2024-03-13T18:31:10.352Z,10.82
2024-03-13T18:34:14.620Z,10.80
2024-03-13T18:37:17.595Z,10.74
2024-03-13T18:40:20.837Z,10.72
2024-03-13T18:43:23.599Z,10.62
2024-03-13T18:46:27.336Z,10.52
2024-03-13T18:49:30.247Z,10.63
2024-03-13T18:52:33.131Z,10.69
2024-03-13T18:55:35.696Z,10.74
2024-03-13T18:58:38.646Z,10.71
2024-03-13T19:01:41.361Z,10.66
2024-03-13T19:04:46.148Z,10.55
2024-03-13T19:07:49.373Z,10.43
2024-03-13T19:10:53.269Z,10.34
2024-03-13T19:13:56.412Z,10.16
2024-03-13T19:16:59.650Z,10.04
2024-03-13T19:20:03.802Z,9.99
2024-03-13T19:23:07.272Z,9.94
2024-03-13T19:26:10.141Z,9.82
2024-03-13T19:29:13.538Z,9.77
2024-03-13T19:32:16.389Z,9.71
2024-03-13T19:35:19.774Z,9.66
2024-03-13T19:38:24.722Z,9.61
2024-03-13T19:41:27.909Z,9.59
2024-03-13T19:44:30.959Z,9.51
2024-03-13T19:47:34.776Z,9.47
2024-03-13T19:50:40.585Z,9.41
2024-03-13T19:53:43.711Z,9.48
2024-03-13T19:56:46.850Z,9.42
2024-03-13T19:59:49.935Z,9.34
2024-03-13T20:02:53.305Z,9.30
2024-03-13T20:05:57.095Z,9.26
2024-03-13T20:09:00.051Z,9.21
2024-03-13T20:12:03.893Z,9.18
2024-03-13T20:15:08.017Z,9.17
2024-03-13T20:18:11.139Z,9.23
2024-03-13T20:21:15.435Z,9.24
2024-03-13T20:24:18.327Z,9.26
2024-03-13T20:27:22.600Z,9.34
2024-03-13T20:30:25.939Z,9.39
2024-03-13T20:33:28.885Z,9.34
2024-03-13T20:36:35.058Z,9.37
2024-03-13T20:39:37.822Z,9.30
2024-03-13T20:42:44.221Z,9.21
2024-03-13T20:45:46.885Z,9.15
2024-03-13T20:48:50.193Z,9.17
2024-03-13T20:51:52.925Z,9.12
2024-03-13T20:54:56.216Z,9.02
2024-03-13T20:57:58.818Z,9.04
2024-03-13T21:01:02.591Z,9.31
2024-03-13T21:04:05.588Z,9.42
2024-03-13T21:07:08.642Z,9.44
2024-03-13T21:10:11.565Z,9.61
2024-03-13T21:13:14.677Z,9.81
2024-03-13T21:16:20.846Z,9.95
2024-03-13T21:19:23.799Z,10.08
2024-03-13T21:22:28.616Z,10.04
2024-03-13T21:25:33.490Z,10.16
2024-03-13T21:28:36.839Z,10.22
2024-03-13T21:31:39.792Z,10.17
2024-03-13T21:34:42.715Z,10.16
2024-03-13T21:37:46.193Z,10.16
2024-03-13T21:40:49.487Z,10.15
2024-03-13T21:43:52.859Z,10.11
2024-03-13T21:46:55.815Z,10.14
2024-03-13T21:49:58.753Z,10.08
2024-03-13T21:53:01.368Z,9.99
2024-03-13T21:56:07.700Z,10.01
2024-03-13T21:59:10.672Z,9.95
2024-03-13T22:02:13.673Z,9.96
2024-03-13T22:05:16.655Z,10.00
2024-03-13T22:08:19.717Z,9.88
2024-03-13T22:11:24.669Z,9.84
2024-03-13T22:14:28.012Z,9.84
2024-03-13T22:17:31.369Z,9.83
2024-03-13T22:20:34.129Z,9.84
2024-03-13T22:23:40.061Z,9.87
2024-03-13T22:26:44.373Z,9.86
2024-03-13T22:29:47.828Z,9.85
2024-03-13T22:32:50.742Z,9.76
2024-03-13T22:35:54.077Z,9.78
2024-03-13T22:38:56.947Z,9.78
2024-03-13T22:42:00.042Z,9.77
2024-03-13T22:45:03.318Z,9.76
2024-03-13T22:48:08.970Z,9.76
2024-03-13T22:51:12.074Z,9.79
2024-03-13T22:54:15.112Z,9.77
2024-03-13T22:57:18.122Z,9.81
2024-03-13T23:00:27.270Z,9.80
2024-03-13T23:03:30.219Z,9.81
2024-03-13T23:06:33.237Z,9.79
2024-03-13T23:09:36.205Z,9.82
2024-03-13T23:12:39.292Z,9.76
2024-03-13T23:15:42.200Z,9.76
2024-03-13T23:18:46.108Z,9.64
2024-03-13T23:21:49.713Z,9.68
2024-03-13T23:24:52.911Z,9.73
2024-03-13T23:27:55.887Z,9.69
2024-03-13T23:30:58.782Z,9.65
2024-03-13T23:34:01.573Z,9.65
2024-03-13T23:37:05.687Z,9.62
2024-03-13T23:40:11.994Z,9.58
2024-03-13T23:43:15.071Z,9.55
2024-03-13T23:46:18.357Z,9.49
2024-03-13T23:49:23.788Z,9.55
2024-03-13T23:52:26.590Z,9.53
2024-03-13T23:55:29.423Z,9.46
2024-03-13T23:58:33.904Z,9.42
